Time,TemperatureF,DewpointF,PressureIn,WindDirection,WindDirectionDegrees,WindSpeedMPH,WindSpeedGustMPH,Humidity,HourlyPrecipIn,Conditions,Clouds,dailyrainin,SoftwareType,DateUTC
2013-08-20 00:03:00,74.5,64.4,30.13,South,180,2.4,6.2,71,0.00,,,0.00,WUHU21636XXSP,2013-08-20 05:03:00,
2013-08-20 00:13:00,74.3,64.2,30.13,South,180,4.4,4.4,71,0.00,,,0.00,WUHU21636XXSP,2013-08-20 05:13:00,
2013-08-20 00:23:00,73.9,63.9,30.13,South,180,2.4,8.5,71,0.00,,,0.00,WUHU21636XXSP,2013-08-20 05:23:00,
2013-08-20 00:33:00,73.8,63.7,30.13,South,180,0.0,5.1,72,0.00,,,0.00,WUHU21636XXSP,2013-08-20 05:33:00,
2013-08-20 00:43:00,73.8,63.7,30.13,South,180,2.6,2.6,72,0.00,,,0.00,WUHU21636XXSP,2013-08-20 05:43:00,
2013-08-20 00:53:00,73.2,63.7,30.13,South,180,0.0,6.9,72,0.00,,,0.00,WUHU21636XXSP,2013-08-20 05:53:00,
2013-08-20 01:03:00,73.2,63.7,30.13,South,180,0.0,2.9,72,0.00,,,0.00,WUHU21636XXSP,2013-08-20 06:03:00,
2013-08-20 01:13:00,73.0,63.9,30.13,South,180,4.9,4.9,73,0.00,,,0.00,WUHU21636XXSP,2013-08-20 06:13:00,
2013-08-20 01:23:00,73.0,63.9,30.14,SSW,202,3.5,7.1,73,0.00,,,0.00,WUHU21636XXSP,2013-08-20 06:23:00,
2013-08-20 01:33:00,73.0,63.9,30.13,South,180,5.3,5.3,73,0.00,,,0.00,WUHU21636XXSP,2013-08-20 06:33:00,
2013-08-20 01:43:00,73.0,63.9,30.13,South,180,0.0,5.3,73,0.00,,,0.00,WUHU21636XXSP,2013-08-20 06:43:00,
2013-08-20 01:53:00,73.0,63.9,30.13,South,180,2.2,6.4,73,0.00,,,0.00,WUHU21636XXSP,2013-08-20 06:53:00,
2013-08-20 02:03:00,72.7,63.5,30.13,South,180,2.6,4.2,73,0.00,,,0.00,WUHU21636XXSP,2013-08-20 07:03:00,
2013-08-20 02:13:00,72.7,63.5,30.13,South,180,4.4,4.4,73,0.00,,,0.00,WUHU21636XXSP,2013-08-20 07:13:00,
2013-08-20 02:23:00,72.1,63.3,30.13,South,180,5.5,9.8,74,0.00,,,0.00,WUHU21636XXSP,2013-08-20 07:23:00,
2013-08-20 02:33:00,71.8,63.0,30.13,SSE,157,3.3,11.4,74,0.00,,,0.00,WUHU21636XXSP,2013-08-20 07:33:00,
2013-08-20 02:43:00,71.4,63.0,30.13,SSE,157,1.3,4.4,75,0.00,,,0.00,WUHU21636XXSP,2013-08-20 07:43:00,
2013-08-20 02:53:00,71.2,62.8,30.13,SSE,157,2.6,4.4,75,0.00,,,0.00,WUHU21636XXSP,2013-08-20 07:53:00,
2013-08-20 03:03:00,70.9,62.8,30.12,South,180,4.0,5.1,76,0.00,,,0.00,WUHU21636XXSP,2013-08-20 08:03:00,
2013-08-20 03:13:00,70.5,62.8,30.12,South,180,5.1,8.9,77,0.00,,,0.00,WUHU21636XXSP,2013-08-20 08:13:00,
2013-08-20 03:23:00,70.3,62.6,30.12,SSE,157,5.8,6.2,77,0.00,,,0.00,WUHU21636XXSP,2013-08-20 08:23:00,
2013-08-20 03:33:00,70.2,62.8,30.13,SSE,157,0.0,5.8,77,0.00,,,0.00,WUHU21636XXSP,2013-08-20 08:33:00,
2013-08-20 03:43:00,70.2,62.8,30.12,SSE,157,1.7,1.7,77,0.00,,,0.00,WUHU21636XXSP,2013-08-20 08:43:00,
2013-08-20 03:53:00,70.2,62.8,30.12,SSE,157,0.0,2.9,77,0.00,,,0.00,WUHU21636XXSP,2013-08-20 08:53:00,
2013-08-20 04:03:00,70.0,62.2,30.12,SSE,157,0.0,0.0,77,0.00,,,0.00,WUHU21636XXSP,2013-08-20 09:03:00,
2013-08-20 04:13:00,70.0,62.2,30.12,SSE,157,0.0,3.1,77,0.00,,,0.00,WUHU21636XXSP,2013-08-20 09:13:00,
2013-08-20 04:23:00,70.0,62.2,30.11,SSE,157,1.5,2.0,77,0.00,,,0.00,WUHU21636XXSP,2013-08-20 09:23:00,
2013-08-20 04:33:00,69.6,61.9,30.11,SSE,157,0.0,2.6,78,0.00,,,0.00,WUHU21636XXSP,2013-08-20 09:33:00,
2013-08-20 04:43:00,69.4,62.2,30.12,SSE,157,0.8,2.4,78,0.00,,,0.00,WUHU21636XXSP,2013-08-20 09:43:00,
2013-08-20 04:53:00,69.1,62.2,30.11,SSE,157,0.0,2.2,79,0.00,,,0.00,WUHU21636XXSP,2013-08-20 09:53:00,
2013-08-20 05:03:00,69.1,62.2,30.11,SSE,157,0.0,1.1,79,0.00,,,0.00,WUHU21636XXSP,2013-08-20 10:03:00,
2013-08-20 05:13:00,68.9,62.1,30.11,SSE,157,0.0,0.0,79,0.00,,,0.00,WUHU21636XXSP,2013-08-20 10:13:00,
2013-08-20 05:23:00,69.1,62.2,30.11,SSE,157,0.0,0.0,79,0.00,,,0.00,WUHU21636XXSP,2013-08-20 10:23:00,
2013-08-20 05:33:00,68.9,62.1,30.11,SSE,157,0.0,0.0,79,0.00,,,0.00,WUHU21636XXSP,2013-08-20 10:33:00,
2013-08-20 05:43:00,68.7,61.9,30.11,SSE,157,0.0,0.0,79,0.00,,,0.00,WUHU21636XXSP,2013-08-20 10:43:00,
2013-08-20 05:53:00,68.7,61.9,30.11,SSE,157,0.0,0.0,79,0.00,,,0.00,WUHU21636XXSP,2013-08-20 10:53:00,
2013-08-20 06:03:00,68.5,61.7,30.12,SSE,157,0.0,0.0,79,0.00,,,0.00,WUHU21636XXSP,2013-08-20 11:03:00,
2013-08-20 06:13:00,68.5,61.7,30.11,SSE,157,0.0,0.0,79,0.00,,,0.00,WUHU21636XXSP,2013-08-20 11:13:00,
2013-08-20 06:23:00,68.2,61.3,30.11,SSE,157,0.0,0.0,79,0.00,,,0.00,WUHU21636XXSP,2013-08-20 11:23:00,
2013-08-20 06:33:00,67.8,61.0,30.12,SSE,157,0.0,0.0,80,0.00,,,0.00,WUHU21636XXSP,2013-08-20 11:33:00,
2013-08-20 06:43:00,67.6,61.3,30.12,SSE,157,0.0,0.0,80,0.00,,,0.00,WUHU21636XXSP,2013-08-20 11:43:00,
2013-08-20 06:53:00,67.6,61.3,30.12,SSE,157,0.0,1.3,80,0.00,,,0.00,WUHU21636XXSP,2013-08-20 11:53:00,
2013-08-20 07:03:00,67.1,60.8,30.13,SSE,157,0.0,0.0,80,0.00,,,0.00,WUHU21636XXSP,2013-08-20 12:03:00,
2013-08-20 07:13:00,66.7,60.4,30.13,SE,135,2.2,2.2,81,0.00,,,0.00,WUHU21636XXSP,2013-08-20 12:13:00,
2013-08-20 07:23:00,66.4,60.6,30.13,SE,135,0.2,2.2,82,0.00,,,0.00,WUHU21636XXSP,2013-08-20 12:23:00,
2013-08-20 07:33:00,66.2,60.4,30.13,SE,135,0.0,0.8,82,0.00,,,0.00,WUHU21636XXSP,2013-08-20 12:33:00,
2013-08-20 07:43:00,66.0,60.6,30.13,SSE,157,1.3,1.5,83,0.00,,,0.00,WUHU21636XXSP,2013-08-20 12:43:00,
2013-08-20 07:53:00,65.8,60.8,30.13,SSE,157,1.1,2.6,84,0.00,,,0.00,WUHU21636XXSP,2013-08-20 12:53:00,
2013-08-20 08:03:00,65.8,60.8,30.13,SE,135,0.0,2.2,84,0.00,,,0.00,WUHU21636XXSP,2013-08-20 13:03:00,
2013-08-20 08:13:00,66.0,61.0,30.14,SSE,157,1.1,2.9,84,0.00,,,0.00,WUHU21636XXSP,2013-08-20 13:13:00,
2013-08-20 08:23:00,66.4,61.3,30.14,SSE,157,0.0,2.6,84,0.00,,,0.00,WUHU21636XXSP,2013-08-20 13:23:00,
2013-08-20 08:33:00,66.4,61.3,30.14,South,180,1.1,2.9,84,0.00,,,0.00,WUHU21636XXSP,2013-08-20 13:33:00,
2013-08-20 08:43:00,66.7,61.7,30.14,South,180,0.8,5.5,84,0.00,,,0.00,WUHU21636XXSP,2013-08-20 13:43:00,
2013-08-20 08:53:00,66.9,61.9,30.14,South,180,3.1,7.1,84,0.00,,,0.00,WUHU21636XXSP,2013-08-20 13:53:00,
2013-08-20 09:03:00,67.1,62.1,30.14,SSE,157,4.4,5.5,84,0.00,,,0.00,WUHU21636XXSP,2013-08-20 14:03:00,
2013-08-20 09:13:00,67.6,62.6,30.14,SSE,157,3.8,8.7,84,0.00,,,0.00,WUHU21636XXSP,2013-08-20 14:13:00,
2013-08-20 09:23:00,68.4,63.0,30.14,South,180,5.5,10.0,83,0.00,,,0.00,WUHU21636XXSP,2013-08-20 14:23:00,
2013-08-20 09:33:00,69.1,63.5,30.14,SSE,157,4.2,8.0,83,0.00,,,0.00,WUHU21636XXSP,2013-08-20 14:33:00,
2013-08-20 09:43:00,70.0,63.7,30.14,SSW,202,4.6,8.0,81,0.00,,,0.00,WUHU21636XXSP,2013-08-20 14:43:00,
2013-08-20 09:53:00,71.6,63.9,30.14,SW,225,4.2,13.6,77,0.00,,,0.00,WUHU21636XXSP,2013-08-20 14:53:00,
2013-08-20 10:03:00,73.0,64.2,30.14,SW,225,4.4,13.4,74,0.00,,,0.00,WUHU21636XXSP,2013-08-20 15:03:00,
2013-08-20 10:13:00,74.1,64.9,30.14,SW,225,8.2,10.5,73,0.00,,,0.00,WUHU21636XXSP,2013-08-20 15:13:00,
2013-08-20 10:23:00,74.8,64.8,30.14,West,270,4.4,10.9,71,0.00,,,0.00,WUHU21636XXSP,2013-08-20 15:23:00,
2013-08-20 10:33:00,75.9,64.9,30.14,SSW,202,6.9,12.7,69,0.00,,,0.00,WUHU21636XXSP,2013-08-20 15:33:00,
2013-08-20 10:43:00,76.8,65.5,30.14,SW,225,7.1,12.3,68,0.00,,,0.00,WUHU21636XXSP,2013-08-20 15:43:00,
2013-08-20 10:53:00,77.7,64.9,30.14,SW,225,6.2,14.5,65,0.00,,,0.00,WUHU21636XXSP,2013-08-20 15:53:00,
2013-08-20 11:03:00,78.4,65.7,30.14,SSW,202,5.1,13.6,65,0.00,,,0.00,WUHU21636XXSP,2013-08-20 16:03:00,
2013-08-20 11:13:00,79.2,66.2,30.14,South,180,6.0,11.1,65,0.00,,,0.00,WUHU21636XXSP,2013-08-20 16:13:00,
2013-08-20 11:23:00,80.1,65.8,30.14,South,180,9.3,14.0,62,0.00,,,0.00,WUHU21636XXSP,2013-08-20 16:23:00,
2013-08-20 11:33:00,80.8,66.0,30.13,SSW,202,3.8,13.1,61,0.00,,,0.00,WUHU21636XXSP,2013-08-20 16:33:00,
2013-08-20 11:44:00,81.7,67.3,30.14,SSW,202,3.1,8.5,62,0.00,,,0.00,WUHU21636XXSP,2013-08-20 16:44:00,
2013-08-20 11:54:00,82.2,67.3,30.13,SW,225,5.1,10.5,61,0.00,,,0.00,WUHU21636XXSP,2013-08-20 16:54:00,
2013-08-20 12:04:00,83.3,67.5,30.13,South,180,3.1,9.8,59,0.00,,,0.00,WUHU21636XXSP,2013-08-20 17:04:00,
2013-08-20 12:14:00,84.0,68.7,30.12,SSE,157,3.5,9.3,60,0.00,,,0.00,WUHU21636XXSP,2013-08-20 17:14:00,
2013-08-20 12:24:00,85.1,68.0,30.12,South,180,3.5,13.1,57,0.00,,,0.00,WUHU21636XXSP,2013-08-20 17:24:00,
2013-08-20 12:34:00,86.7,68.0,30.12,South,180,9.8,15.4,54,0.00,,,0.00,WUHU21636XXSP,2013-08-20 17:34:00,
2013-08-20 12:44:00,87.3,68.0,30.12,SSW,202,6.2,15.2,53,0.00,,,0.00,WUHU21636XXSP,2013-08-20 17:44:00,
2013-08-20 12:54:00,88.0,68.0,30.12,SSE,157,6.4,16.3,52,0.00,,,0.00,WUHU21636XXSP,2013-08-20 17:54:00,
2013-08-20 13:04:00,88.5,67.5,30.12,SSE,157,10.9,21.0,50,0.00,,,0.00,WUHU21636XXSP,2013-08-20 18:04:00,
2013-08-20 13:14:00,89.2,67.5,30.12,South,180,8.5,19.9,49,0.00,,,0.00,WUHU21636XXSP,2013-08-20 18:14:00,
2013-08-20 13:24:00,89.8,68.0,30.11,SSW,202,11.6,18.1,48,0.00,,,0.00,WUHU21636XXSP,2013-08-20 18:24:00,
2013-08-20 13:34:00,90.3,67.8,30.11,SSE,157,9.3,20.5,48,0.00,,,0.00,WUHU21636XXSP,2013-08-20 18:34:00,
2013-08-20 13:44:00,91.0,67.8,30.11,South,180,8.0,17.8,48,0.00,,,0.00,WUHU21636XXSP,2013-08-20 18:44:00,
2013-08-20 13:54:00,91.4,66.9,30.11,South,180,10.2,22.5,45,0.00,,,0.00,WUHU21636XXSP,2013-08-20 18:54:00,
2013-08-20 14:04:00,92.1,66.2,30.10,WSW,247,11.8,21.9,43,0.00,,,0.00,WUHU21636XXSP,2013-08-20 19:04:00,
2013-08-20 14:14:00,92.8,65.5,30.10,South,180,16.3,26.6,41,0.00,,,0.00,WUHU21636XXSP,2013-08-20 19:14:00,
2013-08-20 14:24:00,93.2,67.1,30.10,South,180,14.5,25.2,42,0.00,,,0.00,WUHU21636XXSP,2013-08-20 19:24:00,
2013-08-20 14:34:00,93.7,66.9,30.10,SSW,202,12.5,23.9,42,0.00,,,0.00,WUHU21636XXSP,2013-08-20 19:34:00,
2013-08-20 14:44:00,94.8,68.0,30.10,SSW,202,16.3,21.6,40,0.00,,,0.00,WUHU21636XXSP,2013-08-20 19:44:00,
2013-08-20 14:54:00,95.2,66.9,30.10,South,180,12.0,22.8,41,0.00,,,0.00,WUHU21636XXSP,2013-08-20 19:54:00,
2013-08-20 15:04:00,95.5,66.6,30.09,SSW,202,10.7,23.7,39,0.00,,,0.00,WUHU21636XXSP,2013-08-20 20:04:00,
2013-08-20 15:14:00,96.3,66.4,30.09,SSW,202,13.4,21.6,38,0.00,,,0.00,WUHU21636XXSP,2013-08-20 20:14:00,
2013-08-20 15:24:00,96.4,68.2,30.09,SSW,202,13.6,19.9,38,0.00,,,0.00,WUHU21636XXSP,2013-08-20 20:24:00,
2013-08-20 15:34:00,96.6,67.5,30.09,SSW,202,11.8,21.9,39,0.00,,,0.00,WUHU21636XXSP,2013-08-20 20:34:00,
2013-08-20 15:44:00,96.8,66.0,30.09,SSW,202,11.8,21.2,38,0.00,,,0.00,WUHU21636XXSP,2013-08-20 20:44:00,
2013-08-20 15:54:00,97.0,66.2,30.08,South,180,12.7,26.6,36,0.00,,,0.00,WUHU21636XXSP,2013-08-20 20:54:00,
2013-08-20 16:04:00,96.6,65.8,30.08,South,180,14.0,23.0,36,0.00,,,0.00,WUHU21636XXSP,2013-08-20 21:04:00,
2013-08-20 16:14:00,96.6,65.8,30.08,South,180,13.4,23.9,37,0.00,,,0.00,WUHU21636XXSP,2013-08-20 21:14:00,
2013-08-20 16:24:00,96.6,65.8,30.08,SSW,202,9.6,26.8,37,0.00,,,0.00,WUHU21636XXSP,2013-08-20 21:24:00,
2013-08-20 16:34:00,96.6,65.8,30.07,SSW,202,6.2,20.1,36,0.00,,,0.00,WUHU21636XXSP,2013-08-20 21:34:00,
2013-08-20 16:44:00,96.4,66.6,30.07,SSW,202,10.0,24.3,37,0.00,,,0.00,WUHU21636XXSP,2013-08-20 21:44:00,
2013-08-20 16:54:00,96.6,66.6,30.07,South,180,13.4,24.3,38,0.00,,,0.00,WUHU21636XXSP,2013-08-20 21:54:00,
2013-08-20 17:04:00,97.0,67.8,30.07,SSW,202,11.6,20.5,39,0.00,,,0.00,WUHU21636XXSP,2013-08-20 22:04:00,
2013-08-20 17:14:00,96.6,65.8,30.07,South,180,12.3,25.2,38,0.00,,,0.00,WUHU21636XXSP,2013-08-20 22:14:00,
2013-08-20 17:24:00,96.4,66.6,30.07,South,180,7.6,25.7,39,0.00,,,0.00,WUHU21636XXSP,2013-08-20 22:24:00,
2013-08-20 17:34:00,95.7,66.7,30.07,South,180,11.6,22.3,40,0.00,,,0.00,WUHU21636XXSP,2013-08-20 22:34:00,
2013-08-20 17:44:00,95.9,66.0,30.07,SSW,202,13.1,23.2,38,0.00,,,0.00,WUHU21636XXSP,2013-08-20 22:44:00,
2013-08-20 17:54:00,96.1,66.2,30.07,South,180,12.7,21.2,39,0.00,,,0.00,WUHU21636XXSP,2013-08-20 22:54:00,
2013-08-20 18:04:00,95.5,65.7,30.07,SSW,202,13.1,23.9,38,0.00,,,0.00,WUHU21636XXSP,2013-08-20 23:04:00,
2013-08-20 18:14:00,95.5,65.7,30.07,SSW,202,8.5,23.4,39,0.00,,,0.00,WUHU21636XXSP,2013-08-20 23:14:00,
2013-08-20 18:24:00,94.6,66.6,30.07,SSW,202,15.4,25.5,39,0.00,,,0.00,WUHU21636XXSP,2013-08-20 23:24:00,
2013-08-20 18:34:00,94.3,64.6,30.07,South,180,10.5,23.7,39,0.00,,,0.00,WUHU21636XXSP,2013-08-20 23:34:00,
2013-08-20 18:44:00,93.7,65.7,30.07,South,180,13.1,22.5,41,0.00,,,0.00,WUHU21636XXSP,2013-08-20 23:44:00,
2013-08-20 18:54:00,93.2,65.8,30.07,SSW,202,9.8,23.9,41,0.00,,,0.00,WUHU21636XXSP,2013-08-20 23:54:00,
2013-08-20 19:04:00,92.5,65.8,30.07,South,180,11.6,21.2,42,0.00,,,0.00,WUHU21636XXSP,2013-08-21 00:04:00,
2013-08-20 19:14:00,91.8,65.8,30.07,SSE,157,11.4,22.8,43,0.00,,,0.00,WUHU21636XXSP,2013-08-21 00:14:00,
2013-08-20 19:24:00,91.0,64.6,30.07,SSW,202,11.8,22.5,42,0.00,,,0.00,WUHU21636XXSP,2013-08-21 00:24:00,
2013-08-20 19:34:00,90.3,65.3,30.07,SSE,157,8.9,21.0,44,0.00,,,0.00,WUHU21636XXSP,2013-08-21 00:34:00,
2013-08-20 19:44:00,89.6,64.6,30.07,SSW,202,7.8,20.3,45,0.00,,,0.00,WUHU21636XXSP,2013-08-21 00:44:00,
2013-08-20 19:54:00,88.9,64.6,30.08,South,180,12.7,22.5,45,0.00,,,0.00,WUHU21636XXSP,2013-08-21 00:54:00,
2013-08-20 20:04:00,88.3,64.2,30.08,SSW,202,10.9,22.5,45,0.00,,,0.00,WUHU21636XXSP,2013-08-21 01:04:00,
2013-08-20 20:14:00,87.8,64.4,30.08,South,180,10.0,22.1,46,0.00,,,0.00,WUHU21636XXSP,2013-08-21 01:14:00,
2013-08-20 20:24:00,87.3,63.9,30.09,South,180,6.9,18.5,46,0.00,,,0.00,WUHU21636XXSP,2013-08-21 01:24:00,
2013-08-20 20:34:00,86.7,64.0,30.09,SSW,202,6.2,15.4,47,0.00,,,0.00,WUHU21636XXSP,2013-08-21 01:34:00,
2013-08-20 20:44:00,86.4,64.2,30.09,SSE,157,3.8,17.2,48,0.00,,,0.00,WUHU21636XXSP,2013-08-21 01:44:00,
2013-08-20 20:54:00,85.6,63.7,30.10,South,180,6.9,13.4,48,0.00,,,0.00,WUHU21636XXSP,2013-08-21 01:54:00,
2013-08-20 21:04:00,84.9,63.7,30.10,South,180,6.2,13.6,49,0.00,,,0.00,WUHU21636XXSP,2013-08-21 02:04:00,
2013-08-20 21:14:00,84.4,63.7,30.10,SSE,157,2.6,12.0,50,0.00,,,0.00,WUHU21636XXSP,2013-08-21 02:14:00,
2013-08-20 21:24:00,84.0,63.9,30.11,SSE,157,4.0,4.0,51,0.00,,,0.00,WUHU21636XXSP,2013-08-21 02:24:00,
2013-08-20 21:34:00,83.5,63.9,30.11,South,180,2.6,9.1,52,0.00,,,0.00,WUHU21636XXSP,2013-08-21 02:34:00,
2013-08-20 21:44:00,83.1,63.5,30.11,SSE,157,4.2,4.6,52,0.00,,,0.00,WUHU21636XXSP,2013-08-21 02:44:00,
2013-08-20 21:54:00,82.6,64.0,30.12,SSE,157,3.1,6.9,54,0.00,,,0.00,WUHU21636XXSP,2013-08-21 02:54:00,
2013-08-20 22:04:00,81.9,63.9,30.12,South,180,6.2,10.7,55,0.00,,,0.00,WUHU21636XXSP,2013-08-21 03:04:00,
2013-08-20 22:14:00,81.3,64.0,30.12,SE,135,3.3,6.2,56,0.00,,,0.00,WUHU21636XXSP,2013-08-21 03:14:00,
2013-08-20 22:24:00,81.1,64.4,30.12,SSE,157,5.3,9.3,57,0.00,,,0.00,WUHU21636XXSP,2013-08-21 03:24:00,
2013-08-20 22:34:00,80.8,64.0,30.12,SSE,157,2.9,11.1,57,0.00,,,0.00,WUHU21636XXSP,2013-08-21 03:34:00,
2013-08-20 22:44:00,80.4,63.7,30.12,South,180,6.7,11.8,57,0.00,,,0.00,WUHU21636XXSP,2013-08-21 03:44:00,
2013-08-20 22:54:00,80.2,64.0,30.12,South,180,8.5,13.8,58,0.00,,,0.00,WUHU21636XXSP,2013-08-21 03:54:00,
2013-08-20 23:04:00,80.2,64.0,30.12,South,180,8.0,17.0,58,0.00,,,0.00,WUHU21636XXSP,2013-08-21 04:04:00,
2013-08-20 23:15:00,79.9,64.2,30.12,SSW,202,9.6,17.8,59,0.00,,,0.00,WUHU21636XXSP,2013-08-21 04:15:00,
2013-08-20 23:25:00,79.5,63.9,30.12,SSW,202,10.0,17.6,59,0.00,,,0.00,WUHU21636XXSP,2013-08-21 04:25:00,
2013-08-20 23:35:00,79.3,63.7,30.12,South,180,5.8,17.8,59,0.00,,,0.00,WUHU21636XXSP,2013-08-21 04:35:00,
2013-08-20 23:45:00,79.0,63.9,30.11,South,180,7.3,14.5,60,0.00,,,0.00,WUHU21636XXSP,2013-08-21 04:45:00,
2013-08-20 23:55:00,78.6,64.0,30.11,SSE,157,6.7,14.5,61,0.00,,,0.00,WUHU21636XXSP,2013-08-21 04:55:00,